createdAt,value
2022-12-03T00:00:35.813Z,99970.20
2022-12-03T00:03:20.692Z,99971.23
2022-12-03T00:05:49.510Z,99972.11
2022-12-03T00:08:17.995Z,99969.15
2022-12-03T00:10:47.082Z,99967.92
2022-12-03T00:13:15.425Z,99965.48
2022-12-03T00:15:43.729Z,99967.90
2022-12-03T00:18:12.773Z,99970.70
2022-12-03T00:20:41.169Z,99974.20
2022-12-03T00:23:09.406Z,99973.63
2022-12-03T00:25:37.663Z,99975.52
2022-12-03T00:28:06.053Z,99975.48
2022-12-03T00:30:34.405Z,99978.95
2022-12-03T00:33:02.560Z,99977.55
2022-12-03T00:35:30.848Z,99975.95
2022-12-03T00:37:59.149Z,99979.41
2022-12-03T00:40:27.343Z,99982.73
2022-12-03T00:42:55.690Z,99979.40
2022-12-03T00:45:23.937Z,99980.59
2022-12-03T00:47:52.289Z,99978.33
2022-12-03T00:50:20.670Z,99977.96
2022-12-03T00:52:50.113Z,99978.00
2022-12-03T00:55:18.384Z,99982.20
2022-12-03T00:57:47.280Z,99982.53
2022-12-03T01:00:16.057Z,99984.77
2022-12-03T01:02:44.415Z,99989.98
2022-12-03T01:05:12.888Z,99988.89
2022-12-03T01:07:41.241Z,99986.08
2022-12-03T01:10:10.097Z,99985.34
2022-12-03T01:12:38.504Z,99979.23
2022-12-03T01:15:07.533Z,99977.29
2022-12-03T01:17:37.003Z,99968.72
2022-12-03T01:20:06.635Z,99962.61
2022-12-03T01:22:35.936Z,99962.10
2022-12-03T01:25:04.528Z,99960.36
2022-12-03T01:27:32.812Z,99961.08
2022-12-03T01:30:01.079Z,99964.56
2022-12-03T01:32:29.259Z,99966.46
2022-12-03T01:34:57.592Z,99964.68
2022-12-03T01:37:27.180Z,99958.89
2022-12-03T01:39:55.587Z,99957.84
2022-12-03T01:42:35.869Z,99958.73
2022-12-03T01:45:04.699Z,99956.98
2022-12-03T01:47:38.113Z,99960.65
2022-12-03T01:50:26.039Z,99965.95
2022-12-03T01:52:57.481Z,99962.79
2022-12-03T01:55:26.537Z,99961.89
2022-12-03T01:58:01.292Z,99957.50
2022-12-03T02:00:31.048Z,99955.05
2022-12-03T02:03:11.617Z,99951.70
2022-12-03T02:05:39.958Z,99952.39
2022-12-03T02:08:34.967Z,99951.90
2022-12-03T02:11:14.562Z,99953.10
2022-12-03T02:13:44.378Z,99952.73
2022-12-03T02:16:12.662Z,99949.76
2022-12-03T02:18:41.749Z,99946.42
2022-12-03T02:21:24.056Z,99944.63
2022-12-03T02:24:22.139Z,99947.80
2022-12-03T02:26:50.677Z,99944.32
2022-12-03T02:29:19.006Z,99938.23
2022-12-03T02:31:47.366Z,99940.65
2022-12-03T02:34:39.247Z,99939.97
2022-12-03T02:37:12.767Z,99945.70
2022-12-03T02:39:44.693Z,99947.09
2022-12-03T02:42:33.048Z,99949.52
2022-12-03T02:45:24.352Z,99951.23
2022-12-03T02:48:02.828Z,99954.67
2022-12-03T02:50:38.056Z,99959.88
2022-12-03T02:53:08.745Z,99959.83
2022-12-03T02:55:37.718Z,99960.52
2022-12-03T02:58:07.442Z,99961.55
2022-12-03T03:00:36.247Z,99962.22
2022-12-03T03:03:06.964Z,99960.80
2022-12-03T03:05:38.368Z,99954.48
2022-12-03T03:08:09.049Z,99951.52
2022-12-03T03:10:40.584Z,99955.48
2022-12-03T03:13:15.947Z,99954.07
2022-12-03T03:15:44.677Z,99955.77
2022-12-03T03:18:15.727Z,99956.94
2022-12-03T03:20:45.344Z,99955.15
2022-12-03T03:23:19.348Z,99955.84
2022-12-03T03:26:03.102Z,99952.36
2022-12-03T03:28:34.723Z,99955.64
2022-12-03T03:31:05.493Z,99954.91
2022-12-03T03:33:35.112Z,99955.94
2022-12-03T03:36:03.585Z,99948.10
2022-12-03T03:38:33.166Z,99945.83
2022-12-03T03:41:03.881Z,99944.09
2022-12-03T03:43:35.024Z,99946.02
2022-12-03T03:46:05.577Z,99947.07
2022-12-03T03:48:35.481Z,99945.33
2022-12-03T03:51:09.754Z,99940.27
2022-12-03T03:53:43.033Z,99941.17
2022-12-03T03:56:12.099Z,99942.25
2022-12-03T03:58:40.676Z,99941.91
2022-12-03T04:01:09.582Z,99940.48
2022-12-03T04:03:37.978Z,99942.21
2022-12-03T04:06:06.692Z,99939.23
2022-12-03T04:08:34.963Z,99931.34
2022-12-03T04:11:22.359Z,99936.23
2022-12-03T04:13:51.539Z,99937.96
2022-12-03T04:16:19.887Z,99943.21
2022-12-03T04:18:48.804Z,99942.48
2022-12-03T04:21:38.725Z,99941.56
2022-12-03T04:24:09.901Z,99948.17
2022-12-03T04:26:57.478Z,99943.84
2022-12-03T04:29:25.762Z,99944.85
2022-12-03T04:32:12.544Z,99944.81
2022-12-03T04:34:59.266Z,99940.42
2022-12-03T04:37:27.622Z,99940.92
2022-12-03T04:39:56.024Z,99938.33
2022-12-03T04:42:24.249Z,99937.46
2022-12-03T04:44:52.911Z,99935.71
2022-12-03T04:47:22.572Z,99935.35
2022-12-03T04:49:51.754Z,99939.02
2022-12-03T04:52:21.310Z,99941.27
2022-12-03T04:54:49.638Z,99940.55
2022-12-03T04:57:18.077Z,99943.98
2022-12-03T04:59:46.460Z,99948.70
2022-12-03T05:02:14.884Z,99944.33
2022-12-03T05:04:44.264Z,99945.16
2022-12-03T05:07:12.544Z,99951.25
2022-12-03T05:09:40.848Z,99951.59
2022-12-03T05:12:09.112Z,99955.81
2022-12-03T05:14:37.352Z,99951.95
2022-12-03T05:17:05.663Z,99951.23
2022-12-03T05:19:52.448Z,99948.98
2022-12-03T05:22:20.761Z,99950.55
2022-12-03T05:24:49.013Z,99958.94
2022-12-03T05:27:23.164Z,99958.23
2022-12-03T05:29:53.111Z,99953.87
2022-12-03T05:32:21.450Z,99955.45
2022-12-03T05:34:49.715Z,99954.92
2022-12-03T05:37:18.093Z,99954.21
2022-12-03T05:39:46.377Z,99953.66
2022-12-03T05:42:33.128Z,99957.65
2022-12-03T05:45:01.523Z,99955.55
2022-12-03T05:47:30.024Z,99953.48
2022-12-03T05:49:58.722Z,99949.61
2022-12-03T05:52:27.057Z,99944.00
2022-12-03T05:54:56.048Z,99941.17
2022-12-03T05:57:24.713Z,99938.01
2022-12-03T05:59:53.033Z,99940.96
2022-12-03T06:02:21.358Z,99944.45
2022-12-03T06:04:50.521Z,99944.57
2022-12-03T06:07:19.140Z,99945.95
2022-12-03T06:09:47.400Z,99946.82
2022-12-03T06:12:15.671Z,99943.14
2022-12-03T06:14:44.012Z,99946.83
2022-12-03T06:17:12.212Z,99943.86
2022-12-03T06:19:40.469Z,99945.97
2022-12-03T06:22:08.787Z,99943.90
2022-12-03T06:24:37.089Z,99943.92
2022-12-03T06:27:05.554Z,99948.14
2022-12-03T06:29:33.904Z,99949.88
2022-12-03T06:32:03.794Z,99952.67
2022-12-03T06:34:32.223Z,99953.77
2022-12-03T06:37:01.095Z,99954.49
2022-12-03T06:39:29.534Z,99956.92
2022-12-03T06:41:57.880Z,99953.18
2022-12-03T06:44:26.224Z,99949.35
2022-12-03T06:46:54.620Z,99954.39
2022-12-03T06:49:23.050Z,99958.89
2022-12-03T06:51:51.295Z,99959.52
2022-12-03T06:54:19.546Z,99959.15
2022-12-03T06:56:47.811Z,99958.05
2022-12-03T06:59:16.115Z,99958.37
2022-12-03T07:01:44.380Z,99964.09
2022-12-03T07:04:12.824Z,99965.13
2022-12-03T07:06:41.172Z,99966.50
2022-12-03T07:09:09.447Z,99962.49
2022-12-03T07:11:40.890Z,99961.39
2022-12-03T07:14:11.515Z,99956.28
2022-12-03T07:16:40.330Z,99953.60
2022-12-03T07:19:10.127Z,99955.27
2022-12-03T07:21:38.467Z,99958.73
2022-12-03T07:24:06.949Z,99959.41
2022-12-03T07:26:35.175Z,99962.20
2022-12-03T07:29:03.711Z,99965.69
2022-12-03T07:31:32.108Z,99965.83
2022-12-03T07:34:00.371Z,99965.27
2022-12-03T07:36:28.658Z,99971.19
2022-12-03T07:38:56.960Z,99969.67
2022-12-03T07:41:25.243Z,99966.92
2022-12-03T07:43:53.571Z,99970.26
2022-12-03T07:46:21.890Z,99974.23
2022-12-03T07:48:50.263Z,99970.35
2022-12-03T07:51:18.596Z,99977.31
2022-12-03T07:53:46.860Z,99977.84
2022-12-03T07:56:15.080Z,99974.71
2022-12-03T07:58:43.408Z,99978.93
2022-12-03T08:01:11.895Z,99977.17
2022-12-03T08:03:42.902Z,99984.64
2022-12-03T08:06:11.342Z,99986.31
2022-12-03T08:08:39.635Z,99984.52
2022-12-03T08:11:14.417Z,99976.30
2022-12-03T08:13:42.735Z,99975.32
2022-12-03T08:16:20.238Z,99973.60
2022-12-03T08:18:50.183Z,99972.03
2022-12-03T08:21:20.863Z,99971.87
2022-12-03T08:23:49.332Z,99971.76
2022-12-03T08:26:23.178Z,99975.20
2022-12-03T08:28:53.347Z,99976.34
2022-12-03T08:31:32.983Z,99979.71
2022-12-03T08:34:27.423Z,99984.67
2022-12-03T08:37:06.147Z,99985.95
2022-12-03T08:39:38.040Z,99988.11
2022-12-03T08:42:37.196Z,99987.59
2022-12-03T08:45:35.499Z,99988.63
2022-12-03T08:48:29.992Z,99982.23
2022-12-03T08:51:09.006Z,99973.16
2022-12-03T08:53:42.477Z,99969.74
2022-12-03T08:56:24.183Z,99973.67
2022-12-03T08:58:57.728Z,99975.02
2022-12-03T09:01:32.988Z,99971.88
2022-12-03T09:04:24.712Z,99966.67
2022-12-03T09:06:54.864Z,99970.67
2022-12-03T09:09:24.985Z,99975.55
2022-12-03T09:11:54.437Z,99979.41
2022-12-03T09:14:23.769Z,99977.17
2022-12-03T09:16:56.156Z,99976.16
2022-12-03T09:19:26.926Z,99977.19
2022-12-03T09:21:55.204Z,99975.64
2022-12-03T09:24:23.865Z,99973.70
2022-12-03T09:26:52.284Z,99971.85
2022-12-03T09:29:20.523Z,99972.08
2022-12-03T09:31:48.899Z,99972.58
2022-12-03T09:34:17.328Z,99974.63
2022-12-03T09:36:45.637Z,99972.31
2022-12-03T09:39:13.928Z,99970.52
2022-12-03T09:41:44.475Z,99970.92
2022-12-03T09:44:17.669Z,99972.27
2022-12-03T09:46:47.975Z,99976.70
2022-12-03T09:49:20.140Z,99975.59
2022-12-03T09:51:48.423Z,99976.84
2022-12-03T09:54:24.306Z,99977.16
2022-12-03T09:56:55.532Z,99975.61
2022-12-03T09:59:29.810Z,99977.08
2022-12-03T10:01:59.079Z,99974.51
2022-12-03T10:04:29.048Z,99971.07
2022-12-03T10:06:59.110Z,99972.52
2022-12-03T10:09:29.415Z,99971.25
2022-12-03T10:12:00.006Z,99972.86
2022-12-03T10:14:28.756Z,99967.70
2022-12-03T10:16:57.074Z,99965.95
2022-12-03T10:19:31.911Z,99966.69
2022-12-03T10:22:00.272Z,99962.70
2022-12-03T10:24:31.239Z,99967.77
2022-12-03T10:27:05.186Z,99961.81
2022-12-03T10:29:36.056Z,99964.73
2022-12-03T10:32:07.751Z,99964.27
2022-12-03T10:34:39.179Z,99963.85
2022-12-03T10:37:18.346Z,99961.56
2022-12-03T10:40:10.958Z,99956.92
2022-12-03T10:42:41.204Z,99957.73
2022-12-03T10:45:19.044Z,99955.66
2022-12-03T10:48:11.028Z,99947.23
2022-12-03T10:50:49.107Z,99945.63
2022-12-03T10:53:19.214Z,99947.35
2022-12-03T10:55:51.544Z,99948.52
2022-12-03T10:58:25.825Z,99949.46
2022-12-03T11:00:56.614Z,99944.94
2022-12-03T11:03:31.198Z,99941.77
2022-12-03T11:06:01.449Z,99939.20
2022-12-03T11:08:34.765Z,99936.31
2022-12-03T11:11:13.624Z,99932.04
2022-12-03T11:13:41.740Z,99935.74
2022-12-03T11:16:10.244Z,99933.05
2022-12-03T11:18:38.567Z,99933.43
2022-12-03T11:21:06.996Z,99930.79
2022-12-03T11:23:44.248Z,99932.83
2022-12-03T11:26:28.882Z,99930.27
2022-12-03T11:28:58.997Z,99927.91
2022-12-03T11:31:46.756Z,99930.17
2022-12-03T11:34:18.220Z,99927.44
2022-12-03T11:37:11.447Z,99921.33
2022-12-03T11:39:52.966Z,99918.91
2022-12-03T11:42:27.630Z,99922.98
2022-12-03T11:45:11.118Z,99920.05
2022-12-03T11:47:44.101Z,99914.86
2022-12-03T11:50:23.193Z,99910.55
2022-12-03T11:53:17.235Z,99907.65
2022-12-03T11:55:52.376Z,99903.21
2022-12-03T11:58:25.749Z,99898.95
2022-12-03T12:01:02.655Z,99896.69
2022-12-03T12:03:35.540Z,99896.45
2022-12-03T12:06:05.500Z,99897.29
2022-12-03T12:08:36.841Z,99898.23
2022-12-03T12:11:20.353Z,99887.29
2022-12-03T12:13:49.483Z,99885.31
2022-12-03T12:16:39.268Z,99885.86
2022-12-03T12:19:31.048Z,99888.83
2022-12-03T12:22:25.301Z,99898.42
2022-12-03T12:24:55.868Z,99900.09
2022-12-03T12:27:45.285Z,99900.33
2022-12-03T12:30:16.337Z,99897.49
2022-12-03T12:32:48.085Z,99899.08
2022-12-03T12:35:21.286Z,99896.80
2022-12-03T12:38:00.152Z,99896.82
2022-12-03T12:40:32.073Z,99893.66
2022-12-03T12:43:10.028Z,99893.67
2022-12-03T12:45:43.668Z,99890.48
2022-12-03T12:48:22.628Z,99886.80
2022-12-03T12:51:13.569Z,99887.49
2022-12-03T12:53:43.162Z,99888.56
2022-12-03T12:56:32.766Z,99893.27
2022-12-03T12:59:16.676Z,99890.73
2022-12-03T13:01:47.059Z,99890.26
2022-12-03T13:04:21.466Z,99892.25
2022-12-03T13:06:53.999Z,99891.52
2022-12-03T13:09:25.069Z,99894.09
2022-12-03T13:11:58.490Z,99890.27
2022-12-03T13:14:33.213Z,99889.72
2022-12-03T13:17:11.405Z,99887.23
2022-12-03T13:19:48.322Z,99884.08
2022-12-03T13:22:22.085Z,99888.88
2022-12-03T13:24:52.654Z,99889.30
2022-12-03T13:27:26.171Z,99891.80
2022-12-03T13:29:59.100Z,99895.30
2022-12-03T13:32:38.491Z,99899.06
2022-12-03T13:35:35.799Z,99900.64
2022-12-03T13:38:14.496Z,99899.29
2022-12-03T13:40:42.852Z,99894.84
2022-12-03T13:43:15.878Z,99899.67
2022-12-03T13:45:47.295Z,99895.73
2022-12-03T13:48:29.091Z,99892.30
2022-12-03T13:51:00.891Z,99893.00
2022-12-03T13:53:40.227Z,99894.02
2022-12-03T13:56:29.101Z,99896.95
2022-12-03T13:59:00.443Z,99899.38
2022-12-03T14:01:28.997Z,99908.27
2022-12-03T14:03:57.358Z,99909.46
2022-12-03T14:06:25.682Z,99912.09
2022-12-03T14:08:54.788Z,99906.37
2022-12-03T14:11:41.653Z,99911.08
2022-12-03T14:14:09.952Z,99916.29
2022-12-03T14:16:38.189Z,99920.11
2022-12-03T14:19:06.948Z,99922.34
2022-12-03T14:21:35.226Z,99921.76
2022-12-03T14:24:03.656Z,99924.39
2022-12-03T14:26:31.940Z,99921.60
2022-12-03T14:29:03.413Z,99916.79
2022-12-03T14:31:34.375Z,99917.13
2022-12-03T14:34:02.710Z,99914.80
2022-12-03T14:36:30.933Z,99916.59
2022-12-03T14:38:59.176Z,99915.70
2022-12-03T14:41:45.968Z,99919.17
2022-12-03T14:44:14.249Z,99920.90
2022-12-03T14:46:42.606Z,99924.73
2022-12-03T14:49:10.843Z,99930.23
2022-12-03T14:51:39.070Z,99927.11
2022-12-03T14:54:07.950Z,99924.14
2022-12-03T14:56:36.371Z,99927.91
2022-12-03T14:59:04.541Z,99928.31
2022-12-03T15:01:32.840Z,99933.43
2022-12-03T15:04:01.199Z,99938.88
2022-12-03T15:06:29.436Z,99939.95
2022-12-03T15:08:57.749Z,99939.66
2022-12-03T15:11:25.996Z,99942.73
2022-12-03T15:13:54.372Z,99952.72
2022-12-03T15:16:23.848Z,99949.91
2022-12-03T15:18:52.175Z,99944.83
2022-12-03T15:21:20.413Z,99945.71
2022-12-03T15:23:48.803Z,99946.58
2022-12-03T15:26:17.266Z,99946.41
2022-12-03T15:28:48.404Z,99945.36
2022-12-03T15:31:17.250Z,99949.90
2022-12-03T15:33:45.519Z,99951.64
2022-12-03T15:36:13.769Z,99957.41
2022-12-03T15:38:42.058Z,99962.09
2022-12-03T15:41:29.408Z,99960.84
2022-12-03T15:44:01.660Z,99962.86
2022-12-03T15:46:31.767Z,99967.75
2022-12-03T15:49:00.306Z,99970.00
2022-12-03T15:51:28.496Z,99972.08
2022-12-03T15:53:56.781Z,99970.66
2022-12-03T15:56:25.027Z,99964.87
2022-12-03T15:58:53.948Z,99963.66
2022-12-03T16:01:22.267Z,99969.95
2022-12-03T16:03:50.603Z,99969.98
2022-12-03T16:06:19.714Z,99973.48
2022-12-03T16:08:48.587Z,99974.70
2022-12-03T16:11:16.929Z,99970.21
2022-12-03T16:13:45.244Z,99963.27
2022-12-03T16:16:13.661Z,99960.48
2022-12-03T16:18:44.198Z,99960.70
2022-12-03T16:21:12.481Z,99965.23
2022-12-03T16:23:40.708Z,99965.75
2022-12-03T16:26:08.988Z,99964.86
2022-12-03T16:28:37.231Z,99963.65
2022-12-03T16:31:05.791Z,99959.96
2022-12-03T16:33:34.218Z,99958.88
2022-12-03T16:36:04.123Z,99956.75
2022-12-03T16:38:33.943Z,99963.20
2022-12-03T16:41:02.362Z,99960.90
2022-12-03T16:43:30.767Z,99957.38
2022-12-03T16:46:03.135Z,99952.67
2022-12-03T16:48:31.645Z,99945.99
2022-12-03T16:50:59.815Z,99948.23
2022-12-03T16:53:28.078Z,99950.13
2022-12-03T16:55:56.435Z,99955.35
2022-12-03T16:58:25.314Z,99954.65
2022-12-03T17:00:54.773Z,99954.28
2022-12-03T17:03:23.249Z,99953.95
2022-12-03T17:05:51.563Z,99957.42
2022-12-03T17:08:19.891Z,99955.84
2022-12-03T17:10:48.489Z,99958.77
2022-12-03T17:13:16.858Z,99956.64
2022-12-03T17:15:46.735Z,99953.30
2022-12-03T17:18:15.616Z,99951.37
2022-12-03T17:20:43.893Z,99946.30
2022-12-03T17:23:12.735Z,99934.92
2022-12-03T17:25:41.022Z,99935.27
2022-12-03T17:28:09.309Z,99937.73
2022-12-03T17:30:39.201Z,99940.92
2022-12-03T17:33:07.614Z,99937.44
2022-12-03T17:35:35.901Z,99932.58
2022-12-03T17:38:04.090Z,99935.77
2022-12-03T17:40:32.367Z,99939.99
2022-12-03T17:43:00.606Z,99941.05
2022-12-03T17:45:29.021Z,99936.49
2022-12-03T17:47:57.324Z,99937.69
2022-12-03T17:50:26.495Z,99938.55
2022-12-03T17:52:54.796Z,99939.39
2022-12-03T17:55:31.927Z,99937.80
2022-12-03T17:58:06.438Z,99931.85
2022-12-03T18:00:34.812Z,99933.40
2022-12-03T18:03:03.537Z,99930.77
2022-12-03T18:05:31.827Z,99933.73
2022-12-03T18:08:00.316Z,99934.77
2022-12-03T18:10:28.675Z,99934.41
2022-12-03T18:13:01.413Z,99930.91
2022-12-03T18:15:31.077Z,99929.28
2022-12-03T18:17:59.329Z,99931.02
2022-12-03T18:20:28.225Z,99925.95
2022-12-03T18:22:59.448Z,99921.95
2022-12-03T18:25:29.309Z,99923.55
2022-12-03T18:27:58.157Z,99923.36
2022-12-03T18:30:26.492Z,99921.06
2022-12-03T18:32:55.330Z,99918.23
2022-12-03T18:35:23.857Z,99913.48
2022-12-03T18:37:52.158Z,99912.27
2022-12-03T18:40:23.642Z,99916.48
2022-12-03T18:42:51.954Z,99921.92
2022-12-03T18:45:20.842Z,99923.48
2022-12-03T18:47:49.379Z,99926.12
2022-12-03T18:50:17.837Z,99927.92
2022-12-03T18:52:46.987Z,99924.06
2022-12-03T18:55:19.326Z,99919.64
2022-12-03T18:57:47.644Z,99921.71
2022-12-03T19:00:16.566Z,99923.96
2022-12-03T19:05:35.404Z,99919.04
2022-12-03T19:08:04.885Z,99916.08
2022-12-03T19:10:33.219Z,99915.71
2022-12-03T19:13:03.844Z,99913.81
2022-12-03T19:15:32.188Z,99912.96
2022-12-03T19:18:00.572Z,99917.19
2022-12-03T19:20:28.914Z,99914.04
2022-12-03T19:22:57.199Z,99914.63
2022-12-03T19:25:25.507Z,99915.53
2022-12-03T19:27:55.269Z,99919.02
2022-12-03T19:30:23.615Z,99920.24
2022-12-03T19:32:52.278Z,99915.54
2022-12-03T19:35:21.589Z,99914.52
2022-12-03T19:37:50.031Z,99916.67
2022-12-03T19:40:18.708Z,99915.19
2022-12-03T19:42:47.031Z,99911.92
2022-12-03T19:45:15.261Z,99912.45
2022-12-03T19:47:43.775Z,99909.73
2022-12-03T19:50:22.688Z,99904.92
2022-12-03T19:52:51.963Z,99905.98
2022-12-03T19:55:20.253Z,99906.93
2022-12-03T19:57:49.496Z,99908.24
2022-12-03T20:00:18.098Z,99911.44
2022-12-03T20:02:49.423Z,99910.60
2022-12-03T20:05:19.453Z,99914.02
2022-12-03T20:07:48.348Z,99913.04
2022-12-03T20:10:16.743Z,99908.02
2022-12-03T20:12:45.155Z,99902.99
2022-12-03T20:15:14.342Z,99902.86
2022-12-03T20:17:42.718Z,99903.59
2022-12-03T20:20:11.999Z,99900.27
2022-12-03T20:22:43.326Z,99901.67
2022-12-03T20:25:13.756Z,99898.88
2022-12-03T20:27:46.324Z,99901.38
2022-12-03T20:30:14.784Z,99903.01
2022-12-03T20:32:45.610Z,99900.09
2022-12-03T20:35:14.380Z,99899.27
2022-12-03T20:37:42.591Z,99895.45
2022-12-03T20:40:11.361Z,99890.95
2022-12-03T20:42:39.892Z,99888.01
2022-12-03T20:45:08.754Z,99886.46
2022-12-03T20:47:38.093Z,99890.67
2022-12-03T20:50:08.254Z,99895.76
2022-12-03T20:52:36.800Z,99896.31
2022-12-03T20:55:05.369Z,99903.63
2022-12-03T20:57:34.254Z,99902.98
2022-12-03T21:00:02.538Z,99901.29
2022-12-03T21:02:31.158Z,99900.23
2022-12-03T21:04:59.709Z,99898.33
2022-12-03T21:07:28.044Z,99897.80
2022-12-03T21:09:57.719Z,99900.73
2022-12-03T21:12:27.263Z,99898.27
2022-12-03T21:14:55.540Z,99899.66
2022-12-03T21:17:23.900Z,99895.11
2022-12-03T21:19:52.551Z,99890.92
2022-12-03T21:22:21.219Z,99888.48
2022-12-03T21:24:49.661Z,99886.73
2022-12-03T21:27:21.623Z,99884.30
2022-12-03T21:29:50.876Z,99879.79
2022-12-03T21:32:19.293Z,99884.84
2022-12-03T21:34:47.495Z,99888.83
2022-12-03T21:37:15.745Z,99883.07
2022-12-03T21:39:44.086Z,99885.20
2022-12-03T21:42:34.153Z,99890.29
2022-12-03T21:45:00.755Z,99892.91
2022-12-03T21:47:33.476Z,99888.23
2022-12-03T21:50:08.036Z,99892.31
2022-12-03T21:52:36.581Z,99890.07
2022-12-03T21:55:06.464Z,99886.24
2022-12-03T21:57:36.580Z,99879.27
2022-12-03T22:00:07.933Z,99878.92
2022-12-03T22:02:40.282Z,99881.38
2022-12-03T22:05:10.161Z,99883.86
2022-12-03T22:07:39.981Z,99882.67
2022-12-03T22:10:11.077Z,99886.90
2022-12-03T22:12:41.050Z,99894.06
2022-12-03T22:15:16.572Z,99896.69
2022-12-03T22:17:47.906Z,99891.97
2022-12-03T22:20:16.515Z,99885.15
2022-12-03T22:22:44.846Z,99885.46
2022-12-03T22:25:13.190Z,99883.89
2022-12-03T22:27:41.628Z,99885.45
2022-12-03T22:30:10.074Z,99887.17
2022-12-03T22:32:38.387Z,99887.48
2022-12-03T22:35:07.007Z,99885.88
2022-12-03T22:37:35.264Z,99882.00
2022-12-03T22:40:04.215Z,99878.30
2022-12-03T22:42:32.566Z,99877.02
2022-12-03T22:45:00.796Z,99873.68
2022-12-03T22:47:29.088Z,99874.00
2022-12-03T22:49:57.460Z,99876.42
2022-12-03T22:52:26.012Z,99877.27
2022-12-03T22:54:54.319Z,99874.11
2022-12-03T22:57:22.801Z,99875.48
2022-12-03T22:59:51.105Z,99874.27
2022-12-03T23:02:19.443Z,99868.83
2022-12-03T23:04:47.763Z,99870.35
2022-12-03T23:07:15.994Z,99870.66
2022-12-03T23:09:44.302Z,99876.04
2022-12-03T23:12:14.832Z,99873.71
2022-12-03T23:14:43.153Z,99876.48
2022-12-03T23:17:11.434Z,99870.89
2022-12-03T23:19:39.656Z,99864.03
2022-12-03T23:22:07.881Z,99861.59
2022-12-03T23:24:36.584Z,99863.49
2022-12-03T23:27:04.848Z,99862.62
2022-12-03T23:29:35.268Z,99865.75
2022-12-03T23:32:03.673Z,99864.50
2022-12-03T23:34:32.026Z,99869.02
2022-12-03T23:37:00.301Z,99866.88
2022-12-03T23:39:28.645Z,99867.55
2022-12-03T23:41:56.875Z,99869.79
2022-12-03T23:44:27.172Z,99871.02
2022-12-03T23:46:55.588Z,99873.46
2022-12-03T23:49:23.855Z,99869.41
2022-12-03T23:51:52.106Z,99867.63
2022-12-03T23:54:20.459Z,99865.66
2022-12-03T23:56:48.764Z,99862.14
2022-12-03T23:59:16.999Z,99860.89
